Time;durP1;ratioP1;P1;durP2;ratioP2;P2;SDS_P1;SDS_P2;PMS_P1;PMS_P2;Temp;Humidity;BMP_temperature;BMP_pressure;BME280_temperature;BME280_humidity;BME280_pressure;Samples;Min_cycle;Max_cycle;Signal;HPM_P1;HPM_P2
2022/07/13 00:01:21;;;;;;;3.85;3.13;;;;;;;24.72;49.93;102066.72;5082630;28;20102;-63
2022/07/13 00:03:49;;;;;;;5.18;3.10;;;;;;;24.72;49.72;102066.72;5092454;28;20049;-63
2022/07/13 00:06:18;;;;;;;4.00;2.80;;;;;;;24.71;49.79;102070.56;5067869;28;20129;-63
2022/07/13 00:08:46;;;;;;;3.83;3.42;;;;;;;24.69;50.00;102072.78;5084898;28;20049;-63
2022/07/13 00:11:14;;;;;;;3.95;2.80;;;;;;;24.68;49.74;102073.91;5086390;28;20049;-63
2022/07/13 00:13:41;;;;;;;5.07;3.38;;;;;;;24.67;50.05;102062.09;5077842;28;20040;-63
2022/07/13 00:16:09;;;;;;;4.00;2.90;;;;;;;24.66;49.63;102048.63;5078472;28;20040;-63
2022/07/13 00:18:37;;;;;;;5.82;2.75;;;;;;;24.64;49.91;102034.34;5086962;28;20430;-63
2022/07/13 00:21:05;;;;;;;4.07;3.10;;;;;;;24.63;49.75;102030.78;5098987;28;20058;-63
2022/07/13 00:23:34;;;;;;;4.55;3.28;;;;;;;24.63;49.96;102021.72;5100118;28;20045;-63
2022/07/13 00:26:02;;;;;;;4.38;2.95;;;;;;;24.62;49.77;102017.31;5081077;28;20051;-63
2022/07/13 00:28:30;;;;;;;3.33;2.85;;;;;;;24.62;49.99;102009.06;5087012;28;20166;-63
2022/07/13 00:30:58;;;;;;;6.00;3.63;;;;;;;24.59;49.79;102010.47;5087473;28;20045;-62
2022/07/13 00:33:26;;;;;;;4.20;3.22;;;;;;;24.59;49.73;102015.97;5086766;28;20045;-63
2022/07/13 00:35:54;;;;;;;4.82;3.30;;;;;;;24.57;49.74;102020.09;5096065;28;20396;-63
2022/07/13 00:38:22;;;;;;;4.80;3.38;;;;;;;24.55;49.53;102006.66;5071911;28;20064;-63
2022/07/13 00:40:51;;;;;;;4.00;3.22;;;;;;;24.56;49.40;102004.72;5093346;28;20066;-63
2022/07/13 00:43:19;;;;;;;4.22;3.00;;;;;;;24.54;49.47;101998.69;5082766;28;20057;-63
2022/07/13 00:45:47;;;;;;;3.75;3.05;;;;;;;24.53;49.33;101991.56;5084065;28;20052;-63
2022/07/13 00:48:16;;;;;;;4.28;3.08;;;;;;;24.52;49.69;101990.75;5099891;28;20113;-63
2022/07/13 00:50:44;;;;;;;5.72;3.05;;;;;;;24.49;49.68;101983.06;5085683;28;20048;-62
2022/07/13 00:53:11;;;;;;;4.93;3.17;;;;;;;24.48;49.79;101980.59;5073685;28;20056;-63
2022/07/13 00:55:39;;;;;;;4.65;3.10;;;;;;;24.46;49.96;101980.88;5081808;28;20044;-62
2022/07/13 00:58:09;;;;;;;3.80;2.88;;;;;;;24.44;49.68;101968.53;5079045;28;20091;-63
2022/07/13 01:00:37;;;;;;;4.13;3.03;;;;;;;24.42;49.80;101974.31;5089909;28;20036;-62
2022/07/13 01:03:06;;;;;;;3.70;2.95;;;;;;;24.41;49.61;101972.69;5088522;28;20052;-63
2022/07/13 01:05:34;;;;;;;4.45;3.22;;;;;;;24.36;49.91;101959.00;5081516;28;20069;-62
2022/07/13 01:08:04;;;;;;;4.15;2.70;;;;;;;24.38;49.43;101975.19;5091259;28;20060;-63
2022/07/13 01:10:32;;;;;;;4.22;3.30;;;;;;;24.31;49.71;101962.59;5089442;28;20060;-62
2022/07/13 01:13:00;;;;;;;4.32;2.70;;;;;;;24.35;49.53;101962.84;5077235;28;20041;-63
2022/07/13 01:15:29;;;;;;;4.38;2.83;;;;;;;24.33;49.81;101968.63;5082962;28;20059;-63
2022/07/13 01:17:57;;;;;;;5.22;2.70;;;;;;;24.19;49.70;101947.59;5088533;28;20078;-63
2022/07/13 01:20:26;;;;;;;4.85;2.83;;;;;;;24.31;49.65;101968.09;5089033;28;20058;-64
2022/07/13 01:22:54;;;;;;;3.85;2.75;;;;;;;24.30;49.70;101968.38;5082150;28;20060;-63
2022/07/13 01:25:23;;;;;;;4.05;2.47;;;;;;;24.29;49.70;101969.50;5089107;28;20090;-63
2022/07/13 01:27:51;;;;;;;3.88;2.67;;;;;;;24.27;49.48;101967.03;5094426;28;20119;-63
2022/07/13 01:30:19;;;;;;;5.55;2.67;;;;;;;24.24;49.41;101967.59;5086041;28;20074;-63
2022/07/13 01:32:49;;;;;;;4.47;2.65;;;;;;;24.24;49.51;101966.78;5091599;28;20049;-63
2022/07/13 01:35:18;;;;;;;4.05;2.70;;;;;;;24.23;49.56;101960.47;5085593;28;20051;-63
2022/07/13 01:37:46;;;;;;;3.53;3.08;;;;;;;24.23;49.60;101965.97;5094883;28;20048;-63
2022/07/13 01:40:15;;;;;;;4.70;2.80;;;;;;;24.22;49.57;101969.81;5099193;28;20052;-63
2022/07/13 01:42:46;;;;;;;2.97;2.55;;;;;;;24.22;49.34;101963.50;5097660;28;20067;-63
2022/07/13 01:45:15;;;;;;;4.50;2.83;;;;;;;24.21;49.18;101961.84;5069886;28;20045;-63
2022/07/13 01:47:46;;;;;;;3.88;2.53;;;;;;;24.21;49.35;101959.94;5079504;28;20052;-63
2022/07/13 01:50:16;;;;;;;2.75;2.28;;;;;;;24.20;49.13;101966.53;5097492;28;20099;-62
2022/07/13 01:52:43;;;;;;;3.53;2.42;;;;;;;24.20;49.18;101960.22;5083552;28;20053;-62
2022/07/13 01:55:13;;;;;;;4.00;2.45;;;;;;;24.19;49.55;101955.81;5077468;28;20045;-62
2022/07/13 01:57:42;;;;;;;3.15;2.22;;;;;;;24.18;49.04;101951.44;5079687;28;20086;-63
2022/07/13 02:00:14;;;;;;;3.65;2.53;;;;;;;24.18;49.19;101960.50;5089854;28;20045;-62
2022/07/13 02:02:42;;;;;;;4.70;2.53;;;;;;;24.18;49.45;101957.75;5073041;28;20309;-62
2022/07/13 02:05:11;;;;;;;3.95;2.50;;;;;;;24.16;49.08;101954.47;5085426;28;20064;-62
2022/07/13 02:07:39;;;;;;;4.03;2.38;;;;;;;24.16;49.04;101956.41;5103670;28;20048;-62
2022/07/13 02:10:09;;;;;;;3.95;2.83;;;;;;;24.15;49.09;101955.59;5090888;28;20101;-62
2022/07/13 02:12:37;;;;;;;3.60;2.88;;;;;;;24.12;49.01;101945.16;5071527;28;20080;-62
2022/07/13 02:15:05;;;;;;;3.90;2.95;;;;;;;24.12;49.36;101944.34;5084349;28;20094;-62
2022/07/13 02:17:34;;;;;;;3.72;2.85;;;;;;;24.10;49.36;101939.13;5087806;28;20470;-62
2022/07/13 02:20:02;;;;;;;4.25;2.63;;;;;;;24.09;49.48;101937.50;5097176;28;20049;-62
2022/07/13 02:22:41;;;;;;;3.00;2.30;;;;;;;24.08;49.07;101937.78;5094262;28;20109;-62
2022/07/13 02:25:09;;;;;;;3.55;2.65;;;;;;;24.05;49.09;101930.94;5094625;28;20059;-62
2022/07/13 02:27:37;;;;;;;4.47;2.88;;;;;;;24.06;49.50;101929.00;5089123;28;20771;-62
2022/07/13 02:30:06;;;;;;;3.53;2.85;;;;;;;24.01;49.36;101924.38;5094049;28;20048;-61
2022/07/13 02:32:35;;;;;;;4.50;2.72;;;;;;;23.97;49.47;101915.88;5087541;28;20158;-62
2022/07/13 02:35:03;;;;;;;3.70;2.70;;;;;;;24.00;49.46;101929.03;5096398;28;20080;-63
2022/07/13 02:37:31;;;;;;;4.70;2.70;;;;;;;24.00;49.31;101939.22;5082407;28;20049;-62
2022/07/13 02:39:59;;;;;;;3.47;2.35;;;;;;;23.97;49.71;101931.53;5097812;28;20052;-62
2022/07/13 02:42:27;;;;;;;3.65;2.70;;;;;;;23.96;49.66;101935.41;5081448;28;20059;-62
2022/07/13 02:44:54;;;;;;;4.90;2.70;;;;;;;23.94;49.84;101930.19;5083123;28;20051;-62
2022/07/13 02:47:23;;;;;;;3.15;2.42;;;;;;;23.92;49.52;101926.09;5095409;28;20417;-62
2022/07/13 02:49:52;;;;;;;4.07;2.70;;;;;;;23.90;49.42;101920.88;5096145;28;20052;-63
2022/07/13 02:52:20;;;;;;;5.45;2.90;;;;;;;23.89;49.71;101918.41;5081071;28;20227;-63
2022/07/13 02:54:47;;;;;;;3.33;2.75;;;;;;;23.87;49.44;101915.97;5095529;28;20079;-63
2022/07/13 02:57:15;;;;;;;3.70;2.80;;;;;;;23.86;49.73;101908.81;5083059;28;20513;-63
2022/07/13 02:59:43;;;;;;;2.80;2.30;;;;;;;23.86;49.46;101905.25;5083377;28;20044;-63
2022/07/13 03:02:11;;;;;;;3.63;2.42;;;;;;;23.84;49.55;101913.78;5080857;28;20048;-63
2022/07/13 03:04:40;;;;;;;4.50;2.80;;;;;;;23.83;49.77;101916.81;5071735;28;20049;-63
2022/07/13 03:07:09;;;;;;;4.57;2.92;;;;;;;23.81;49.84;101911.59;5094480;28;20078;-63
2022/07/13 03:09:37;;;;;;;3.75;2.60;;;;;;;23.82;49.64;101912.44;5103486;28;20048;-63
2022/07/13 03:12:05;;;;;;;3.25;2.42;;;;;;;23.79;49.91;101911.06;5088157;28;20047;-63
2022/07/13 03:14:33;;;;;;;4.00;2.42;;;;;;;23.79;49.89;101915.75;5089388;28;20075;-63
2022/07/13 03:17:02;;;;;;;5.28;2.88;;;;;;;23.77;49.53;101918.78;5103971;28;20118;-62
2022/07/13 03:19:31;;;;;;;2.60;2.15;;;;;;;23.76;49.82;101922.63;5106995;28;20047;-62
2022/07/13 03:21:58;;;;;;;4.38;2.38;;;;;;;23.74;49.91;101913.84;5094948;28;20113;-62
2022/07/13 03:24:29;;;;;;;5.63;2.78;;;;;;;23.73;49.85;101912.22;5094598;28;20071;-62
2022/07/13 03:26:57;;;;;;;3.75;2.50;;;;;;;23.73;50.09;101903.97;5077186;28;20044;-62
2022/07/13 03:29:24;;;;;;;6.10;2.65;;;;;;;23.71;50.01;101908.94;5083840;28;20052;-63
2022/07/13 03:31:52;;;;;;;4.97;2.78;;;;;;;23.72;50.08;101899.59;5097099;28;20138;-62
2022/07/13 03:34:20;;;;;;;3.40;2.53;;;;;;;23.71;49.80;101906.19;5094566;28;20048;-62
2022/07/13 03:36:47;;;;;;;2.88;2.45;;;;;;;23.68;49.48;101901.25;5085882;28;20055;-62
2022/07/13 03:39:15;;;;;;;4.80;2.60;;;;;;;23.69;49.94;101905.66;5076993;28;20057;-62
2022/07/13 03:41:44;;;;;;;4.25;2.75;;;;;;;23.67;49.83;101899.63;5084121;28;20106;-62
2022/07/13 03:44:12;;;;;;;3.83;2.65;;;;;;;23.66;49.74;101904.28;5098689;28;20112;-62
2022/07/13 03:46:41;;;;;;;6.05;2.38;;;;;;;23.65;49.87;101901.81;5087567;28;20086;-62
2022/07/13 03:49:08;;;;;;;3.50;2.55;;;;;;;23.64;49.79;101900.19;5106197;28;20052;-62
2022/07/13 03:51:38;;;;;;;5.30;2.50;;;;;;;23.64;49.96;101908.41;5086730;28;20068;-62
2022/07/13 03:54:06;;;;;;;4.20;2.60;;;;;;;23.62;50.07;101897.72;5085789;28;20057;-62
2022/07/13 03:56:33;;;;;;;3.72;2.60;;;;;;;23.61;49.91;101896.09;5097580;28;20057;-62
2022/07/13 03:59:02;;;;;;;3.75;3.00;;;;;;;23.59;50.13;101887.31;5084136;28;20059;-62
2022/07/13 04:01:30;;;;;;;3.75;2.72;;;;;;;23.59;49.98;101891.97;5076994;28;20052;-62
2022/07/13 04:03:59;;;;;;;3.30;2.38;;;;;;;23.47;49.98;101873.09;5095871;28;20051;-61
2022/07/13 04:06:27;;;;;;;4.35;2.70;;;;;;;23.57;50.14;101886.78;5091123;28;20056;-62
2022/07/13 04:08:54;;;;;;;3.97;2.80;;;;;;;23.55;50.22;101882.69;5086315;28;20050;-62
2022/07/13 04:11:22;;;;;;;4.00;2.38;;;;;;;23.55;49.72;101888.16;5102683;28;20052;-62
2022/07/13 04:13:50;;;;;;;3.33;2.47;;;;;;;23.54;49.98;101886.53;5087806;28;20044;-61
2022/07/13 04:16:19;;;;;;;2.78;2.42;;;;;;;23.52;50.17;101886.78;5093189;28;20071;-62
2022/07/13 04:18:47;;;;;;;3.80;2.60;;;;;;;23.48;49.81;101891.19;5085988;28;20078;-62
2022/07/13 04:21:15;;;;;;;3.53;2.78;;;;;;;23.50;49.94;101891.72;5104216;28;20044;-61
2022/07/13 04:23:42;;;;;;;2.92;2.47;;;;;;;23.49;50.18;101894.75;5082000;28;20044;-62
2022/07/13 04:26:10;;;;;;;3.78;2.80;;;;;;;23.48;49.84;101888.44;5077388;28;20051;-62
2022/07/13 04:28:38;;;;;;;4.32;2.70;;;;;;;23.46;50.31;101885.16;5084413;28;20090;-62
2022/07/13 04:31:06;;;;;;;2.65;2.28;;;;;;;23.44;50.03;101884.63;5085787;28;20049;-62
2022/07/13 04:33:35;;;;;;;3.55;2.60;;;;;;;23.41;49.84;101876.16;5092912;28;20286;-62
2022/07/13 04:36:08;;;;;;;4.47;2.88;;;;;;;23.42;49.92;101872.28;5096627;28;20106;-62
2022/07/13 04:38:36;;;;;;;4.05;2.60;;;;;;;23.40;50.02;101869.84;5105012;28;20151;-62
2022/07/13 04:41:04;;;;;;;4.63;3.00;;;;;;;23.39;49.83;101873.69;5084323;28;20052;-62
2022/07/13 04:43:32;;;;;;;4.93;2.65;;;;;;;23.38;50.06;101872.88;5081260;28;20052;-62
2022/07/13 04:46:00;;;;;;;2.92;2.30;;;;;;;23.37;50.10;101876.72;5083754;28;20060;-62
2022/07/13 04:48:28;;;;;;;3.67;2.60;;;;;;;23.36;50.30;101872.31;5095490;28;20040;-62
2022/07/13 04:50:57;;;;;;;4.85;2.60;;;;;;;23.37;50.30;101873.16;5087226;28;20082;-63
2022/07/13 04:53:24;;;;;;;4.18;2.17;;;;;;;23.35;49.98;101869.88;5093300;28;20060;-63
2022/07/13 04:55:52;;;;;;;3.03;2.40;;;;;;;23.34;50.20;101866.31;5099536;28;20519;-63
2022/07/13 04:58:20;;;;;;;3.17;2.50;;;;;;;23.30;49.93;101861.66;5082753;28;20064;-62
2022/07/13 05:00:48;;;;;;;2.80;2.22;;;;;;;23.32;50.09;101868.50;5094158;28;20056;-63
2022/07/13 05:03:36;;;;;;;3.63;2.38;;;;;;;23.32;50.07;101868.50;5095395;28;20138;-63
2022/07/13 05:06:06;;;;;;;3.55;2.58;;;;;;;23.31;50.17;101861.38;5083850;28;20072;-63
2022/07/13 05:08:33;;;;;;;3.55;2.50;;;;;;;23.30;50.22;101864.41;5070605;28;20079;-64
2022/07/13 05:11:02;;;;;;;3.50;2.28;;;;;;;23.25;50.20;101848.78;5098983;28;20565;-64
2022/07/13 05:13:30;;;;;;;4.18;2.55;;;;;;;23.28;50.39;101858.38;5076216;28;20173;-64
2022/07/13 05:15:58;;;;;;;3.95;2.90;;;;;;;23.26;50.44;101861.41;5078246;28;20099;-62
2022/07/13 05:18:26;;;;;;;4.10;2.63;;;;;;;23.25;50.09;101862.50;5097968;28;20098;-65
2022/07/13 05:20:54;;;;;;;3.47;2.67;;;;;;;;;;5096318;28;20051;-64
2022/07/13 05:23:23;;;;;;;4.78;2.63;;;;;;;23.24;50.02;101863.63;5087465;28;20052;-64
2022/07/13 05:25:51;;;;;;;4.03;2.75;;;;;;;23.27;50.21;101863.03;5103419;28;20054;-65
2022/07/13 05:28:18;;;;;;;4.13;2.85;;;;;;;23.29;50.38;101862.75;5075231;28;20055;-64
2022/07/13 05:30:46;;;;;;;5.32;2.60;;;;;;;23.30;50.13;101861.66;5096661;28;20090;-63
2022/07/13 05:33:15;;;;;;;7.45;2.92;;;;;;;23.30;50.23;101867.16;5086360;28;20139;-63
2022/07/13 05:35:43;;;;;;;6.38;2.80;;;;;;;23.31;50.19;101871.53;5079918;28;20055;-64
2022/07/13 05:38:11;;;;;;;4.60;2.90;;;;;;;23.30;50.82;101878.94;5071934;28;20079;-65
2022/07/13 05:40:41;;;;;;;9.65;3.15;;;;;;;23.31;50.48;101879.75;5086949;28;20075;-62
2022/07/13 05:43:12;;;;;;;4.22;3.13;;;;;;;23.31;50.28;101871.53;5084987;28;20048;-62
2022/07/13 05:45:40;;;;;;;5.85;2.88;;;;;;;23.28;50.76;101863.88;5079740;28;20045;-63
2022/07/13 05:48:08;;;;;;;6.68;2.60;;;;;;;23.29;50.26;101871.81;5089661;28;20052;-61
2022/07/13 05:50:39;;;;;;;4.15;2.67;;;;;;;23.31;50.90;101871.53;5076352;28;20048;-63
2022/07/13 05:53:07;;;;;;;4.45;2.70;;;;;;;23.30;50.70;101867.97;5081205;28;20040;-62
2022/07/13 05:55:35;;;;;;;3.75;2.30;;;;;;;23.31;50.46;101886.06;5092372;28;20068;-63
2022/07/13 05:58:04;;;;;;;4.35;2.72;;;;;;;23.31;50.36;101871.53;5087462;28;20476;-62
2022/07/13 06:00:32;;;;;;;4.32;2.53;;;;;;;23.27;50.54;101878.69;5074381;28;20049;-63
2022/07/13 06:03:00;;;;;;;6.07;2.20;;;;;;;23.31;50.35;101890.72;5088077;28;20037;-64
2022/07/13 06:05:28;;;;;;;5.57;2.80;;;;;;;23.31;50.47;101888.81;5081117;28;20044;-63
2022/07/13 06:07:56;;;;;;;6.13;2.55;;;;;;;23.31;50.36;101891.56;5092801;28;20044;-63
2022/07/13 06:10:24;;;;;;;5.25;2.90;;;;;;;23.30;50.65;101886.34;5089515;28;20109;-65
2022/07/13 06:12:51;;;;;;;7.60;2.70;;;;;;;23.29;50.67;101876.47;5097755;28;20048;-64
2022/07/13 06:15:21;;;;;;;3.83;2.45;;;;;;;23.26;50.66;101883.34;5093411;28;20052;-65
2022/07/13 06:17:49;;;;;;;5.03;2.53;;;;;;;23.29;50.93;101892.94;5103399;28;20044;-63
2022/07/13 06:20:17;;;;;;;5.68;2.83;;;;;;;23.27;50.72;101887.72;5104029;28;20048;-64
2022/07/13 06:23:09;;;;;;;4.15;2.70;;;;;;;23.27;51.05;101885.00;5087263;28;20059;-63
2022/07/13 06:25:32;;;;;;;4.80;2.42;;;;;;;23.27;50.90;101890.47;5090388;28;20114;-65
2022/07/13 06:28:00;;;;;;;5.93;2.55;;;;;;;23.35;51.32;101889.88;5101939;28;20044;-64
2022/07/13 06:30:29;;;;;;;7.32;2.70;;;;;;;23.33;50.58;101891.28;5081208;28;20055;-64
2022/07/13 06:32:57;;;;;;;6.63;2.20;;;;;;;23.32;50.93;101889.63;5098287;28;20048;-63
2022/07/13 06:35:25;;;;;;;5.20;2.70;;;;;;;23.30;50.85;101886.34;5095127;28;20048;-63
2022/07/13 06:37:53;;;;;;;5.55;2.83;;;;;;;23.29;50.93;101884.72;5098155;28;20044;-64
2022/07/13 06:40:21;;;;;;;8.18;2.67;;;;;;;23.29;50.56;101882.78;5103843;28;20135;-64
2022/07/13 06:42:49;;;;;;;4.63;2.70;;;;;;;23.26;50.93;101877.88;5073031;28;20140;-62
2022/07/13 06:45:17;;;;;;;4.90;2.67;;;;;;;23.30;50.56;101889.91;4376698;28;10000855;-64
2022/07/13 06:47:46;;;;;;;5.30;2.38;;;;;;;23.29;50.59;101890.19;5087384;28;20432;-63
2022/07/13 06:50:13;;;;;;;3.63;2.20;;;;;;;23.27;51.00;101882.25;5093341;28;20485;-63
2022/07/13 06:52:43;;;;;;;3.58;2.17;;;;;;;23.29;50.78;101881.97;5101720;28;20055;-63
2022/07/13 06:55:11;;;;;;;5.13;2.70;;;;;;;23.25;50.72;101876.22;5102483;28;20070;-63
2022/07/13 06:57:39;;;;;;;3.40;2.17;;;;;;;23.28;50.47;101878.41;5093051;28;20052;-64
2022/07/13 07:00:08;;;;;;;6.85;3.00;;;;;;;23.28;50.78;101878.41;5081980;28;20059;-65
2022/07/13 07:02:37;;;;;;;4.78;2.50;;;;;;;23.31;50.71;101885.25;5097923;28;20108;-64
2022/07/13 07:05:09;;;;;;;3.35;2.17;;;;;;;23.32;50.90;101884.16;5107391;28;20060;-64
2022/07/13 07:07:38;;;;;;;3.53;2.28;;;;;;;23.32;50.59;101890.44;5090881;28;20108;-64
2022/07/13 07:10:06;;;;;;;6.43;2.55;;;;;;;23.32;50.56;101873.16;5095907;28;20052;-63
2022/07/13 07:12:34;;;;;;;4.88;2.25;;;;;;;23.37;50.76;101895.91;5075449;28;20041;-63
2022/07/13 07:15:02;;;;;;;5.10;2.38;;;;;;;23.33;50.38;101880.28;5100717;28;20075;-63
2022/07/13 07:17:30;;;;;;;6.72;2.45;;;;;;;23.42;50.52;101883.28;5092604;28;20521;-62
2022/07/13 07:20:03;;;;;;;3.95;2.40;;;;;;;23.38;50.71;101886.56;5104341;28;20079;-63
2022/07/13 07:22:32;;;;;;;3.53;2.08;;;;;;;23.38;50.92;101878.34;5100839;28;20078;-63
2022/07/13 07:25:00;;;;;;;4.43;2.10;;;;;;;23.45;51.04;101877.22;5106856;28;20047;-63
2022/07/13 07:27:28;;;;;;;4.32;2.08;;;;;;;23.48;50.47;101876.66;5078497;28;20092;-63
2022/07/13 07:29:55;;;;;;;5.68;2.30;;;;;;;23.59;50.00;101876.34;5095719;28;20453;-63
2022/07/13 07:32:23;;;;;;;3.97;2.13;;;;;;;23.52;50.59;101883.22;5091678;28;20146;-65
2022/07/13 07:34:51;;;;;;;4.70;2.83;;;;;;;23.49;50.59;101876.38;5101311;28;20048;-63
2022/07/13 07:37:20;;;;;;;4.25;2.50;;;;;;;23.46;50.37;101868.69;5101768;28;20052;-65
2022/07/13 07:39:52;;;;;;;4.93;2.30;;;;;;;23.48;50.39;101877.47;5089537;28;20056;-63
2022/07/13 07:42:20;;;;;;;5.22;2.40;;;;;;;23.50;50.59;101880.75;5105854;28;20048;-64
2022/07/13 07:44:48;;;;;;;3.95;2.33;;;;;;;23.54;50.55;101875.53;5083684;28;20075;-63
2022/07/13 07:47:16;;;;;;;5.93;2.10;;;;;;;23.56;50.55;101871.41;5077823;28;20056;-63
2022/07/13 07:49:44;;;;;;;3.42;2.13;;;;;;;23.58;50.36;101876.63;5081936;28;20118;-64
2022/07/13 07:52:12;;;;;;;4.15;2.20;;;;;;;23.60;50.29;101877.16;5085158;28;20051;-64
2022/07/13 07:55:01;;;;;;;3.92;2.50;;;;;;;23.64;50.87;101883.72;5105265;28;20143;-63
2022/07/13 07:57:30;;;;;;;5.22;2.20;;;;;;;23.64;50.78;101870.81;5088154;28;20056;-63
2022/07/13 07:59:58;;;;;;;4.03;2.17;;;;;;;23.64;50.45;101864.50;5091068;28;20474;-63
2022/07/13 08:02:25;;;;;;;4.63;2.45;;;;;;;23.63;50.40;101863.69;5086447;28;20074;-62
2022/07/13 08:04:53;;;;;;;4.90;2.30;;;;;;;23.62;50.47;101863.97;5095183;28;20143;-63
2022/07/13 08:07:21;;;;;;;3.65;2.38;;;;;;;23.64;51.00;101867.25;5105776;28;20066;-64
2022/07/13 08:09:49;;;;;;;5.85;2.10;;;;;;;23.72;50.40;101863.09;5091475;28;20052;-63
2022/07/13 08:12:18;;;;;;;5.18;2.58;;;;;;;23.69;50.58;101856.25;5089408;28;20048;-63
2022/07/13 08:14:47;;;;;;;6.15;2.50;;;;;;;23.69;51.14;101869.97;5088058;28;20041;-63
2022/07/13 08:17:14;;;;;;;7.28;2.30;;;;;;;23.66;50.69;101870.53;5099146;28;20078;-63
2022/07/13 08:19:42;;;;;;;3.70;2.22;;;;;;;23.69;51.05;101881.75;5087247;28;20075;-64
2022/07/13 08:22:10;;;;;;;5.47;2.63;;;;;;;23.75;51.34;101868.81;5096709;28;20580;-64
2022/07/13 08:24:38;;;;;;;4.68;2.10;;;;;;;23.77;51.23;101880.34;5099095;28;20048;-64
2022/07/13 08:27:06;;;;;;;5.65;2.25;;;;;;;23.74;51.13;101880.91;5096967;28;20415;-64
2022/07/13 08:29:35;;;;;;;5.38;2.30;;;;;;;23.74;51.48;101878.16;5076763;28;20099;-64
2022/07/13 08:32:03;;;;;;;5.25;2.30;;;;;;;23.74;51.39;101878.16;5097958;28;20076;-63
2022/07/13 08:40:08;;;;;;;4.03;2.45;;;;;;;23.80;51.81;101870.72;5090044;28;20052;-63
2022/07/13 08:42:36;;;;;;;4.90;2.17;;;;;;;23.81;51.86;101886.06;5094533;28;20119;-64
2022/07/13 08:45:07;;;;;;;5.80;2.58;;;;;;;23.81;51.90;101883.34;5067433;28;20076;-64
2022/07/13 08:47:37;;;;;;;4.95;2.72;;;;;;;23.84;51.88;101880.00;5097473;28;20055;-64
2022/07/13 08:50:08;;;;;;;7.55;2.63;;;;;;;23.85;51.99;101878.91;5099317;28;20060;-64
2022/07/13 08:52:37;;;;;;;6.88;3.05;;;;;;;23.87;52.34;101873.94;5079888;28;20049;-65
2022/07/13 08:55:06;;;;;;;8.43;2.75;;;;;;;23.86;52.19;101884.13;5088559;28;20048;-65
2022/07/13 08:57:35;;;;;;;6.25;2.40;;;;;;;23.86;52.45;101877.81;5095638;28;20226;-64
2022/07/13 09:00:06;;;;;;;6.63;2.88;;;;;;;23.88;53.00;101876.41;5097408;28;20049;-65
2022/07/13 09:02:35;;;;;;;6.13;2.88;;;;;;;23.88;53.31;101881.91;5072987;28;20079;-66
2022/07/13 09:05:05;;;;;;;8.93;3.47;;;;;;;23.91;52.97;101886.00;5092801;28;20052;-64
2022/07/13 09:07:33;;;;;;;5.57;2.50;;;;;;;23.94;53.00;101894.50;5104444;28;20076;-64
2022/07/13 09:10:02;;;;;;;4.28;2.47;;;;;;;23.98;52.66;101903.78;5102300;28;20068;-64
2022/07/13 09:12:35;;;;;;;7.72;2.35;;;;;;;23.99;52.69;101897.19;5074406;28;20059;-64
2022/07/13 09:15:06;;;;;;;4.13;2.38;;;;;;;24.00;53.06;101889.78;5078074;28;20080;-64
2022/07/13 09:17:38;;;;;;;7.90;2.72;;;;;;;24.02;53.14;101898.56;5093158;28;20056;-67
2022/07/13 09:20:22;;;;;;;8.07;2.65;;;;;;;24.05;53.16;101884.25;5087454;28;20070;-65
2022/07/13 09:23:02;;;;;;;7.72;2.80;;;;;;;24.03;52.92;101880.97;5084638;28;20053;-66
2022/07/13 09:25:32;;;;;;;6.43;2.25;;;;;;;24.10;53.07;101884.19;5104883;28;20122;-66
2022/07/13 09:28:03;;;;;;;6.68;2.20;;;;;;;24.12;52.90;101897.66;5099132;28;20086;-66
2022/07/13 09:30:32;;;;;;;3.95;2.30;;;;;;;24.13;52.53;101899.28;5096759;28;20044;-65
2022/07/13 09:33:01;;;;;;;4.90;2.20;;;;;;;24.13;52.35;101886.38;5084989;28;20158;-65
2022/07/13 09:35:44;;;;;;;8.52;2.58;;;;;;;24.15;52.20;101886.09;5085254;28;20490;-64
2022/07/13 09:38:28;;;;;;;3.50;2.25;;;;;;;24.14;52.27;101895.44;5096649;28;20129;-69
2022/07/13 09:40:58;;;;;;;5.60;2.53;;;;;;;24.07;52.11;101886.69;5089850;28;20046;-69
2022/07/13 09:46:11;;;;;;;4.50;2.03;;;;;;;24.15;51.50;101886.91;5075771;28;20056;-70
2022/07/13 09:48:50;;;;;;;5.57;2.30;;;;;;;24.17;51.98;101898.44;5098062;28;20497;-69
2022/07/13 09:51:26;;;;;;;4.13;2.20;;;;;;;24.20;52.10;101897.84;5099080;28;20045;-69
2022/07/13 09:54:00;;;;;;;2.95;2.22;;;;;;;24.21;52.14;101909.66;5069154;28;20041;-72
2022/07/13 09:56:31;;;;;;;3.75;2.00;;;;;;;24.23;52.03;101899.22;5091104;28;20459;-73
2022/07/13 09:59:04;;;;;;;5.68;2.50;;;;;;;24.27;51.83;101905.75;5096113;28;20643;-73
2022/07/13 10:01:33;;;;;;;5.75;2.35;;;;;;;24.23;51.95;101897.28;5085351;28;20048;-73
2022/07/13 10:04:08;;;;;;;6.68;2.25;;;;;;;24.28;52.27;101893.66;5097485;28;20072;-76
2022/07/13 10:06:56;;;;;;;4.03;2.47;;;;;;;24.34;52.32;101907.06;5078218;28;20045;-76
2022/07/13 10:09:24;;;;;;;6.68;2.92;;;;;;;24.35;52.30;101902.41;5092145;28;20051;-73
2022/07/13 10:11:53;;;;;;;3.05;1.90;;;;;;;24.38;51.82;101903.75;5091970;28;20418;-74
2022/07/13 10:14:20;;;;;;;4.45;2.58;;;;;;;24.34;51.93;101900.75;5088215;28;20044;-74
2022/07/13 10:16:49;;;;;;;4.63;2.38;;;;;;;24.39;51.65;101911.69;5087714;28;20053;-74
2022/07/13 10:19:19;;;;;;;6.47;2.55;;;;;;;24.40;51.69;101913.34;5103643;28;20420;-73
2022/07/13 10:22:02;;;;;;;5.93;2.30;;;;;;;24.41;51.80;101906.72;5095991;28;20051;-73
2022/07/13 10:24:30;;;;;;;3.78;2.38;;;;;;;24.44;51.65;101913.59;5088305;28;20102;-73
2022/07/13 10:27:19;;;;;;;6.90;2.22;;;;;;;24.44;51.75;101919.06;5108119;28;20068;-73
2022/07/13 10:29:51;;;;;;;9.10;2.53;;;;;;;24.45;51.46;101913.28;5093798;28;20055;-73
2022/07/13 10:32:22;;;;;;;5.60;2.30;;;;;;;24.46;50.95;101909.44;5105499;28;20056;-73
2022/07/13 10:34:53;;;;;;;4.07;2.50;;;;;;;24.47;51.27;101913.81;5075658;28;20049;-73
2022/07/13 10:37:23;;;;;;;5.65;2.42;;;;;;;24.48;51.38;101914.63;5100336;28;20044;-73
2022/07/13 10:40:11;;;;;;;3.67;2.35;;;;;;;24.50;51.67;101921.50;5103931;28;20052;-73
2022/07/13 10:43:10;;;;;;;4.60;2.15;;;;;;;24.51;51.32;101927.81;5084548;28;20071;-73
2022/07/13 10:45:40;;;;;;;3.75;2.17;;;;;;;24.52;51.35;101929.44;5087400;28;20055;-73
2022/07/13 10:48:11;;;;;;;5.57;2.25;;;;;;;24.51;51.44;101917.63;5083873;28;20044;-72
2022/07/13 10:50:45;;;;;;;4.75;2.10;;;;;;;24.51;51.38;101912.13;5086699;28;20051;-72
2022/07/13 10:53:15;;;;;;;2.72;2.05;;;;;;;24.59;51.65;101919.75;5092869;28;20040;-73
2022/07/13 10:55:49;;;;;;;6.65;2.30;;;;;;;24.61;51.57;101911.22;5088623;28;20401;-73
2022/07/13 10:58:43;;;;;;;3.38;2.05;;;;;;;24.63;51.29;101920.00;5094443;28;20059;-73
2022/07/13 11:01:50;;;;;;;5.95;2.28;;;;;;;24.66;51.22;101922.16;5104784;28;20067;-72
2022/07/13 11:04:20;;;;;;;4.72;1.85;;;;;;;24.69;51.73;101926.25;5090725;28;20044;-72
2022/07/13 11:07:10;;;;;;;4.55;1.77;;;;;;;24.67;51.60;101912.81;5099997;28;20060;-73
2022/07/13 11:09:39;;;;;;;4.95;1.90;;;;;;;24.74;51.46;101926.22;5106952;28;20059;-73
2022/07/13 11:12:22;;;;;;;4.07;2.28;;;;;;;24.75;50.95;101928.66;5098015;28;20051;-72
2022/07/13 11:14:51;;;;;;;4.10;2.42;;;;;;;24.76;50.96;101924.00;5098941;28;20044;-72
2022/07/13 11:17:21;;;;;;;4.95;1.85;;;;;;;24.79;50.86;101915.16;5090746;28;20154;-71
2022/07/13 11:19:53;;;;;;;3.28;1.92;;;;;;;24.75;51.17;101914.09;5092062;28;20044;-73
2022/07/13 11:22:22;;;;;;;4.35;2.33;;;;;;;24.83;50.30;101929.97;5105563;28;20052;-72
2022/07/13 11:25:16;;;;;;;2.83;1.85;;;;;;;24.83;50.65;101921.72;5091702;28;20044;-73
2022/07/13 11:28:03;;;;;;;6.35;2.60;;;;;;;24.84;49.76;101921.41;5105817;28;20052;-72
2022/07/13 11:30:34;;;;;;;6.68;1.77;;;;;;;24.85;49.45;101919.50;5106347;28;20478;-73
2022/07/13 11:33:02;;;;;;;2.53;1.90;;;;;;;24.86;49.33;101918.38;5087642;28;20457;-73
2022/07/13 11:35:30;;;;;;;4.75;2.15;;;;;;;24.86;49.46;101927.44;5087391;28;20056;-72
2022/07/13 11:37:59;;;;;;;4.53;2.03;;;;;;;24.87;49.19;101926.34;5088735;28;20040;-72
2022/07/13 11:40:30;;;;;;;4.50;2.20;;;;;;;24.85;48.76;101925.81;5098884;28;20048;-73
2022/07/13 11:43:02;;;;;;;6.32;2.30;;;;;;;24.90;49.35;101916.69;5094357;28;20045;-72
2022/07/13 11:45:32;;;;;;;3.55;2.03;;;;;;;24.92;49.46;101923.53;5094871;28;20048;-72
2022/07/13 11:48:00;;;;;;;3.13;1.58;;;;;;;24.96;49.60;101930.13;5097503;28;20395;-72